ムルマンスク の空港の天気 - METARとTAF

ムルマンスク空港 ( ULMM / MMK ) - ロシア ムルマンスク
飛行場実況気象(Metar)
観測時間05/27 02:00 MSK (05/26 23:00 UTC)
風向・風速南南東 2m/s
視程10km以上
天気現象
なし
気温4℃
湿度70%
気圧1025hPa
METARULMM 262300Z 15002MPS CAVOK 04/M01 Q1025 R13/090070 NOSIG RMK QFE762
過去の天気等 Google飛行場航空写真 Wunderground天気予報

過去48時間のMETAR

飛行場予報(TAF)
発表時間: 5/26 22:51 MSK (5/26 19:51 UTC)
予報対象時間: 27日0時 MSK ~ 28日0時 MSK
風向・風速南南東 3m/s
視程10km以上
なし
27日0時 MSK ~ 27日9時 MSK に一時的に
風向・風速南 3m/s 瞬間風速 8m/s
27日9時 MSK から
風向・風速南 3m/s 瞬間風速 8m/s
視程10km以上
全天の8割程度の雲 雲底高度 610m
27日9時 MSK ~ 27日15時 MSK に一時的に
風向・風速南西 5m/s 瞬間風速 10m/s
27日15時 MSK ~ 27日24時 MSK に一時的に
風向・風速西南西 6m/s 瞬間風速 12m/s
視程6000m
天気現象弱いしゅう雨
全天の8割程度の積乱雲 雲底高度 610m
TAF ULMM 261951Z 2621/2721 15003MPS CAVOK
TEMPO 2621/2706 17003G08MPS
FM270600 19003G08MPS 9999 BKN020
TEMPO 2706/2712 22005G10MPS
TEMPO 2712/2721 24006G12MPS 6000 -SHRA BKN020CB